Time;durP1;ratioP1;P1;durP2;ratioP2;P2;SDS_P1;SDS_P2;PMS_P1;PMS_P2;Temp;Humidity;BMP_temperature;BMP_pressure;BME280_temperature;BME280_humidity;BME280_pressure;Samples;Min_cycle;Max_cycle;Signal;HPM_P1;HPM_P2
2022/12/18 00:01:50;;;;;;;22.58;8.68;;;-1.20;93.40;;;;;;5033384;28;20064;-76
2022/12/18 00:04:22;;;;;;;20.15;9.10;;;-1.20;93.40;;;;;;5032897;28;20110;-76
2022/12/18 00:06:48;;;;;;;21.75;8.50;;;-1.20;93.30;;;;;;5032496;28;20106;-76
2022/12/18 00:09:14;;;;;;;20.75;8.73;;;-1.30;93.30;;;;;;5032539;28;20471;-75
2022/12/18 00:11:41;;;;;;;21.30;9.20;;;-1.20;93.50;;;;;;5032602;28;20037;-75
2022/12/18 00:14:06;;;;;;;17.63;8.18;;;-1.30;93.40;;;;;;5032860;28;20064;-76
2022/12/18 00:16:35;;;;;;;23.50;9.23;;;-1.30;93.50;;;;;;5031449;28;20045;-75
2022/12/18 00:19:01;;;;;;;22.10;9.45;;;-1.30;93.50;;;;;;5032452;28;20111;-74
2022/12/18 00:21:28;;;;;;;23.58;9.23;;;-1.20;93.40;;;;;;5031922;28;20037;-75
2022/12/18 00:23:54;;;;;;;20.00;8.48;;;-1.20;93.50;;;;;;5032310;28;20048;-73
2022/12/18 00:26:23;;;;;;;21.83;8.68;;;-1.20;93.70;;;;;;5032009;28;20033;-75
2022/12/18 00:28:49;;;;;;;17.05;8.13;;;-1.30;93.40;;;;;;5032688;28;20120;-73
2022/12/18 00:31:19;;;;;;;21.30;8.07;;;-1.30;93.50;;;;;;5030932;28;20033;-75
2022/12/18 00:33:45;;;;;;;21.52;8.02;;;-1.30;93.40;;;;;;5031994;28;20030;-74
2022/12/18 00:36:13;;;;;;;21.73;8.18;;;-1.30;93.50;;;;;;5032013;28;20040;-74
2022/12/18 00:38:40;;;;;;;23.00;8.95;;;-1.30;93.50;;;;;;5031632;28;20037;-75
2022/12/18 00:41:07;;;;;;;19.40;7.70;;;-1.30;93.50;;;;;;5031359;28;20393;-73
2022/12/18 00:43:33;;;;;;;18.45;6.82;;;-1.20;93.50;;;;;;5032024;28;20052;-74
2022/12/18 00:45:58;;;;;;;23.83;8.88;;;-1.20;93.50;;;;;;5031707;28;20471;-75
2022/12/18 00:48:24;;;;;;;22.35;8.52;;;-1.20;93.50;;;;;;5031934;28;20044;-74
2022/12/18 00:50:51;;;;;;;18.13;8.75;;;-1.20;93.50;;;;;;5030312;28;20029;-74
2022/12/18 00:53:17;;;;;;;20.50;8.50;;;-1.20;93.50;;;;;;5031611;28;20029;-74
2022/12/18 00:55:43;;;;;;;17.50;8.13;;;-1.20;93.50;;;;;;5030852;28;20037;-73
2022/12/18 00:58:10;;;;;;;18.05;8.40;;;-1.20;93.30;;;;;;5030337;28;20033;-73
2022/12/18 01:00:36;;;;;;;23.85;9.10;;;-1.10;93.30;;;;;;5031286;28;20037;-73
2022/12/18 01:03:02;;;;;;;19.23;9.02;;;-1.20;93.30;;;;;;5031316;28;20026;-73
2022/12/18 01:05:28;;;;;;;19.77;8.13;;;-1.30;93.20;;;;;;5031443;28;20025;-73
2022/12/18 01:07:54;;;;;;;30.33;8.60;;;-1.30;93.20;;;;;;5031718;28;20026;-75
2022/12/18 01:10:20;;;;;;;21.15;8.20;;;-1.30;93.30;;;;;;5031097;28;20175;-74
2022/12/18 01:12:45;;;;;;;18.55;8.05;;;-1.20;93.30;;;;;;5031030;28;20184;-73
2022/12/18 01:15:13;;;;;;;20.98;8.43;;;-1.30;93.30;;;;;;5031170;28;20033;-73
2022/12/18 01:17:38;;;;;;;21.45;8.65;;;-1.30;93.30;;;;;;5031296;28;20025;-73
2022/12/18 01:20:05;;;;;;;22.92;8.80;;;-1.30;93.20;;;;;;5031534;28;20113;-76
2022/12/18 01:22:33;;;;;;;24.08;8.88;;;-1.30;93.20;;;;;;5030594;28;20057;-75
2022/12/18 01:24:59;;;;;;;20.48;8.63;;;-1.30;93.20;;;;;;5029799;28;20117;-75
2022/12/18 01:27:25;;;;;;;23.85;8.20;;;-1.40;93.20;;;;;;5030832;28;20117;-75
2022/12/18 01:29:51;;;;;;;17.70;8.35;;;-1.30;93.30;;;;;;5030912;28;20369;-75
2022/12/18 01:32:16;;;;;;;18.05;8.60;;;-1.40;93.30;;;;;;5030809;28;20107;-75
2022/12/18 01:34:42;;;;;;;19.85;8.48;;;-1.40;93.40;;;;;;5031437;28;20052;-75
2022/12/18 01:37:08;;;;;;;16.45;7.88;;;-1.40;93.50;;;;;;5030757;28;20060;-75
2022/12/18 01:39:33;;;;;;;18.30;7.60;;;-1.40;93.50;;;;;;5029789;28;20113;-73
2022/12/18 01:42:01;;;;;;;25.38;8.90;;;-1.40;93.50;;;;;;5030885;28;20029;-74
2022/12/18 01:44:57;;;;;;;18.67;8.00;;;-1.50;93.60;;;;;;5031184;28;20107;-74
2022/12/18 01:47:43;;;;;;;22.00;8.05;;;-1.50;93.60;;;;;;5030412;28;20402;-73
2022/12/18 01:50:23;;;;;;;18.60;8.07;;;-1.50;93.60;;;;;;5031445;28;20033;-74
2022/12/18 01:52:56;;;;;;;16.35;7.95;;;-1.50;93.70;;;;;;5030502;28;20072;-74
2022/12/18 01:55:26;;;;;;;21.67;8.95;;;-1.50;93.70;;;;;;5029353;28;20048;-73
2022/12/18 01:57:58;;;;;;;21.13;8.30;;;-1.50;93.70;;;;;;5028977;28;20456;-73
2022/12/18 02:00:26;;;;;;;21.35;8.85;;;-1.50;93.60;;;;;;5030888;28;20508;-73
2022/12/18 02:02:52;;;;;;;17.65;8.02;;;-1.50;93.70;;;;;;5030327;28;20029;-75
2022/12/18 02:05:26;;;;;;;17.58;7.55;;;-1.50;93.70;;;;;;5030252;28;20025;-76
2022/12/18 02:08:02;;;;;;;17.90;8.02;;;-1.50;93.70;;;;;;5030205;28;20033;-75
2022/12/18 02:10:47;;;;;;;18.15;8.23;;;-1.50;93.60;;;;;;5030438;28;20367;-76
2022/12/18 02:13:30;;;;;;;18.02;7.93;;;-1.60;93.70;;;;;;5030135;28;20076;-75
2022/12/18 02:16:06;;;;;;;22.83;9.65;;;-1.60;93.70;;;;;;5030647;28;20100;-75
2022/12/18 02:18:40;;;;;;;27.73;10.85;;;-1.50;93.80;;;;;;5023148;28;20052;-76
2022/12/18 02:21:14;;;;;;;68.40;26.33;;;-1.60;93.80;;;;;;5035207;28;20033;-74
2022/12/18 02:24:14;;;;;;;26.10;9.63;;;-1.60;93.80;;;;;;5030876;28;20030;-73
2022/12/18 02:26:49;;;;;;;19.83;8.32;;;-1.60;93.80;;;;;;5030358;28;20026;-75
2022/12/18 02:29:34;;;;;;;17.25;7.78;;;-1.50;93.80;;;;;;5030225;28;20112;-75
2022/12/18 02:32:01;;;;;;;18.40;7.53;;;-1.50;93.80;;;;;;5030748;28;20064;-74
2022/12/18 02:34:30;;;;;;;23.02;8.40;;;-1.40;93.80;;;;;;5029260;28;20418;-75
2022/12/18 02:37:00;;;;;;;20.25;7.53;;;-1.50;93.80;;;;;;5012804;28;20490;-76
2022/12/18 02:39:29;;;;;;;19.60;7.93;;;-1.50;93.60;;;;;;5009415;28;20403;-75
2022/12/18 02:41:54;;;;;;;21.58;8.35;;;-1.50;93.60;;;;;;5011020;28;20531;-74
2022/12/18 02:44:20;;;;;;;17.17;7.65;;;-1.50;93.60;;;;;;5010761;28;20022;-74
2022/12/18 02:46:51;;;;;;;19.30;8.82;;;-1.50;93.60;;;;;;5010032;28;20048;-74
2022/12/18 02:49:32;;;;;;;18.02;8.55;;;-1.60;93.60;;;;;;5010565;28;20113;-75
2022/12/18 02:52:30;;;;;;;17.38;7.55;;;-1.60;93.60;;;;;;5010348;28;20057;-75
2022/12/18 02:55:15;;;;;;;19.10;7.00;;;-1.70;93.70;;;;;;5010638;28;20036;-75
2022/12/18 02:58:15;;;;;;;17.65;7.75;;;-1.70;93.70;;;;;;5010960;28;20470;-73
2022/12/18 03:01:04;;;;;;;21.85;8.55;;;-1.70;93.80;;;;;;5003283;28;20576;-73
2022/12/18 03:03:46;;;;;;;19.30;8.10;;;-1.60;93.70;;;;;;5010887;28;20030;-75
2022/12/18 03:06:25;;;;;;;18.75;7.90;;;-1.80;93.70;;;;;;5014409;28;20030;-75
2022/12/18 03:08:56;;;;;;;21.20;7.80;;;-1.70;93.70;;;;;;5013083;28;20030;-75
2022/12/18 03:12:22;;;;;;;21.48;8.63;;;-1.80;93.70;;;;;;5012986;28;20112;-75
2022/12/18 03:14:08;;;;;;;19.25;8.15;;;-1.90;93.90;;;;;;5014131;28;20064;-75
2022/12/18 03:16:35;;;;;;;25.88;8.60;;;-1.90;93.90;;;;;;5014175;28;20373;-74
2022/12/18 03:19:15;;;;;;;18.08;8.20;;;-1.90;94.00;;;;;;5014084;28;20026;-74
2022/12/18 03:21:48;;;;;;;21.88;8.52;;;-1.90;94.00;;;;;;5012592;28;20034;-75
2022/12/18 03:24:15;;;;;;;17.92;8.27;;;-1.90;93.90;;;;;;5014137;28;20108;-76
2022/12/18 03:26:44;;;;;;;18.33;7.40;;;-1.90;93.90;;;;;;5013733;28;20341;-73
2022/12/18 03:29:35;;;;;;;20.05;8.43;;;-1.90;93.90;;;;;;5014425;28;20037;-74
2022/12/18 03:32:24;;;;;;;21.83;8.10;;;-2.00;93.80;;;;;;5013985;28;20460;-74
2022/12/18 03:34:53;;;;;;;17.60;8.57;;;-2.00;93.90;;;;;;5014115;28;20121;-76
2022/12/18 03:37:19;;;;;;;21.15;8.07;;;-2.10;94.10;;;;;;5012896;28;20036;-74
2022/12/18 03:39:46;;;;;;;18.27;8.60;;;-2.00;94.10;;;;;;5012909;28;20034;-75
2022/12/18 03:42:30;;;;;;;19.85;8.65;;;-2.00;94.10;;;;;;5005833;28;20029;-75
2022/12/18 03:45:23;;;;;;;21.40;8.07;;;-2.00;94.10;;;;;;5019592;28;20057;-75
2022/12/18 03:48:11;;;;;;;17.35;7.43;;;-1.90;94.10;;;;;;5013975;28;20041;-74
2022/12/18 03:51:01;;;;;;;19.25;8.23;;;-2.00;94.00;;;;;;5014093;28;20040;-74
2022/12/18 03:53:38;;;;;;;16.92;8.27;;;-2.00;93.90;;;;;;5013459;28;20037;-75
2022/12/18 03:56:05;;;;;;;20.27;8.77;;;-2.00;94.00;;;;;;5013260;28;20297;-75
2022/12/18 03:58:34;;;;;;;21.23;8.60;;;-1.90;94.10;;;;;;5014316;28;20405;-74
2022/12/18 04:01:05;;;;;;;19.88;7.47;;;-2.00;93.90;;;;;;5012940;28;20030;-76
2022/12/18 04:03:33;;;;;;;16.40;7.95;;;-2.00;93.90;;;;;;5012352;28;20030;-76
2022/12/18 04:06:00;;;;;;;22.02;8.90;;;-2.00;93.90;;;;;;5012151;28;20034;-75
2022/12/18 04:08:27;;;;;;;19.98;8.55;;;-2.00;93.90;;;;;;5013183;28;20018;-74
2022/12/18 04:10:52;;;;;;;19.95;8.38;;;-2.00;94.00;;;;;;5012500;28;20103;-75
2022/12/18 04:13:36;;;;;;;18.92;8.40;;;-2.10;93.80;;;;;;5012711;28;20563;-75
2022/12/18 04:16:02;;;;;;;18.02;7.40;;;-2.20;93.50;;;;;;5011806;28;20041;-73
2022/12/18 04:18:28;;;;;;;22.63;8.95;;;-2.20;93.40;;;;;;5011942;28;20065;-75
2022/12/18 04:20:54;;;;;;;19.98;8.55;;;-2.20;93.40;;;;;;5012808;28;20064;-75
2022/12/18 04:23:19;;;;;;;22.92;8.20;;;-2.30;93.40;;;;;;5011926;28;20026;-73
2022/12/18 04:25:47;;;;;;;19.55;7.70;;;-2.40;93.30;;;;;;5013381;28;20022;-74
2022/12/18 04:28:13;;;;;;;19.50;8.48;;;-2.50;93.30;;;;;;5012602;28;20045;-74
2022/12/18 04:30:39;;;;;;;18.63;8.35;;;-2.60;93.30;;;;;;5011641;28;20033;-74
2022/12/18 04:33:11;;;;;;;17.30;7.65;;;-2.70;93.20;;;;;;5012372;28;20026;-74
2022/12/18 04:35:37;;;;;;;17.27;8.05;;;-2.80;93.10;;;;;;5012623;28;20037;-74
2022/12/18 04:38:03;;;;;;;18.92;8.40;;;-2.90;92.90;;;;;;5012962;28;20109;-75
2022/12/18 04:40:28;;;;;;;25.05;9.20;;;-2.90;93.10;;;;;;5026488;28;20044;-74
2022/12/18 04:42:54;;;;;;;15.75;6.95;;;-3.00;93.00;;;;;;5012381;28;20045;-74
2022/12/18 04:45:20;;;;;;;18.30;8.20;;;-3.10;93.20;;;;;;5012392;28;20026;-75
2022/12/18 04:47:58;;;;;;;18.75;8.95;;;-3.10;93.40;;;;;;5012413;28;20424;-75
2022/12/18 04:50:24;;;;;;;25.05;8.85;;;-3.20;93.30;;;;;;5011573;28;20053;-74
2022/12/18 04:52:49;;;;;;;20.77;8.60;;;-3.20;93.30;;;;;;5011724;28;20364;-72
2022/12/18 04:55:15;;;;;;;17.80;7.55;;;-3.30;93.20;;;;;;5012503;28;20478;-75
2022/12/18 04:57:41;;;;;;;19.10;8.38;;;-3.30;93.40;;;;;;5011105;28;20037;-75
2022/12/18 05:00:07;;;;;;;20.70;8.05;;;-3.40;93.40;;;;;;5014990;28;20400;-76
2022/12/18 05:02:33;;;;;;;18.83;8.35;;;-3.40;93.40;;;;;;5010953;28;20471;-75
2022/12/18 05:04:59;;;;;;;17.38;7.38;;;-3.30;93.50;;;;;;5011443;28;20038;-74
2022/12/18 05:07:25;;;;;;;20.55;8.43;;;-3.40;93.20;;;;;;5012105;28;20096;-73
2022/12/18 05:09:51;;;;;;;18.50;7.93;;;-3.40;93.30;;;;;;5011933;28;20030;-74
2022/12/18 05:12:16;;;;;;;19.00;8.43;;;-3.40;93.20;;;;;;5011867;28;20050;-76
2022/12/18 05:14:42;;;;;;;19.58;7.65;;;-3.50;93.20;;;;;;5012061;28;20368;-75
2022/12/18 05:17:08;;;;;;;20.92;7.50;;;-3.60;93.10;;;;;;5012078;28;20036;-74
2022/12/18 05:19:34;;;;;;;21.40;8.00;;;-3.50;93.20;;;;;;5011831;28;20030;-73
2022/12/18 05:21:59;;;;;;;15.48;7.10;;;-3.60;92.90;;;;;;5011981;28;20080;-73
2022/12/18 05:24:25;;;;;;;19.88;8.18;;;-3.60;93.10;;;;;;5017302;28;20038;-75
2022/12/18 05:26:51;;;;;;;19.65;8.10;;;-3.70;93.10;;;;;;5011717;28;20041;-74
2022/12/18 05:29:16;;;;;;;20.10;8.13;;;-3.60;93.10;;;;;;5011873;28;20033;-73
2022/12/18 05:31:42;;;;;;;15.77;6.78;;;-3.60;93.10;;;;;;5012292;28;20030;-74
2022/12/18 05:34:08;;;;;;;19.25;7.68;;;-3.50;93.40;;;;;;5013168;28;20034;-73
2022/12/18 05:36:34;;;;;;;19.23;8.40;;;-3.50;93.40;;;;;;5011854;28;20449;-75
2022/12/18 05:39:00;;;;;;;20.35;7.40;;;-3.50;93.50;;;;;;5011409;28;20468;-76
2022/12/18 05:41:26;;;;;;;15.10;7.10;;;-3.40;93.30;;;;;;5010271;28;20344;-73
2022/12/18 05:43:52;;;;;;;19.17;7.90;;;-3.50;93.10;;;;;;5011977;28;20355;-74
2022/12/18 05:46:18;;;;;;;16.42;7.40;;;-3.60;93.10;;;;;;5011298;28;20117;-74
2022/12/18 05:48:45;;;;;;;17.58;7.40;;;-3.40;93.50;;;;;;5011346;28;20041;-75
2022/12/18 05:51:14;;;;;;;19.38;7.97;;;-3.40;93.70;;;;;;5011273;28;20111;-75
2022/12/18 05:53:40;;;;;;;16.70;7.57;;;-3.40;93.20;;;;;;5011162;28;20048;-73
2022/12/18 05:56:09;;;;;;;18.50;8.05;;;-3.50;92.70;;;;;;5011689;28;20025;-74
2022/12/18 05:58:35;;;;;;;18.95;7.75;;;-3.60;92.50;;;;;;5026051;28;20045;-74
2022/12/18 06:01:09;;;;;;;16.77;7.78;;;-3.60;92.70;;;;;;5011318;28;20117;-74
2022/12/18 06:03:35;;;;;;;26.55;8.50;;;-3.60;92.70;;;;;;5010255;28;20091;-74
2022/12/18 06:06:01;;;;;;;18.17;7.45;;;-3.70;92.60;;;;;;5010192;28;20030;-74
2022/12/18 06:08:27;;;;;;;16.65;7.00;;;-3.80;92.40;;;;;;5011030;28;20104;-73
2022/12/18 06:10:53;;;;;;;14.95;6.90;;;-3.90;92.50;;;;;;5011470;28;20033;-75
2022/12/18 06:13:19;;;;;;;13.90;6.63;;;-3.70;93.20;;;;;;5010692;28;20069;-75
2022/12/18 06:15:45;;;;;;;16.05;6.65;;;-3.70;92.90;;;;;;5011213;28;20292;-75
2022/12/18 06:18:11;;;;;;;11.70;6.85;;;-3.60;93.40;;;;;;5009969;28;20030;-74
2022/12/18 06:20:39;;;;;;;16.85;7.28;;;-3.50;93.90;;;;;;5011058;28;20055;-74
2022/12/18 06:23:05;;;;;;;;;;;-3.40;94.10;;;;;;5012131;28;20029;-74
2022/12/18 06:25:32;;;;;;;13.88;6.80;;;-3.30;93.90;;;;;;5010889;28;20366;-75
2022/12/18 06:27:58;;;;;;;19.38;6.97;;;-3.20;94.00;;;;;;5011054;28;20492;-74
2022/12/18 06:30:24;;;;;;;14.52;6.43;;;-3.20;93.60;;;;;;5011054;28;20242;-75
2022/12/18 06:32:50;;;;;;;19.10;7.05;;;-3.20;93.50;;;;;;5010725;28;20034;-75
2022/12/18 06:35:16;;;;;;;18.38;6.90;;;-3.20;93.50;;;;;;5009739;28;20528;-74
2022/12/18 06:37:42;;;;;;;16.50;6.47;;;-3.20;93.50;;;;;;5011315;28;20061;-75
2022/12/18 06:40:08;;;;;;;17.65;7.55;;;-3.20;93.50;;;;;;5014542;28;20052;-75
2022/12/18 06:42:34;;;;;;;27.42;10.02;;;-3.20;93.40;;;;;;5014645;28;20356;-76
2022/12/18 06:44:59;;;;;;;23.75;9.45;;;-3.10;93.70;;;;;;5013672;28;20036;-74
2022/12/18 06:47:25;;;;;;;18.92;7.30;;;-3.00;93.80;;;;;;5014707;28;20050;-74
2022/12/18 06:49:51;;;;;;;19.02;8.10;;;-3.00;93.90;;;;;;5015008;28;20021;-74
2022/12/18 06:52:17;;;;;;;22.75;9.60;;;-2.90;94.10;;;;;;5014464;28;20054;-75
2022/12/18 06:54:43;;;;;;;22.08;8.18;;;-2.80;93.70;;;;;;5014834;28;20026;-74
2022/12/18 06:57:08;;;;;;;11.60;6.25;;;-2.80;93.70;;;;;;5013318;28;20046;-74
2022/12/18 06:59:34;;;;;;;12.93;6.22;;;-2.80;93.60;;;;;;5014483;28;20038;-74
2022/12/18 07:02:00;;;;;;;15.30;7.20;;;-2.80;93.60;;;;;;5015149;28;20483;-74
2022/12/18 07:04:30;;;;;;;12.95;6.35;;;-2.90;93.40;;;;;;5014612;28;20113;-74
2022/12/18 07:06:55;;;;;;;16.13;6.53;;;-3.30;92.70;;;;;;5014713;28;20030;-75
2022/12/18 07:09:21;;;;;;;16.58;6.68;;;-3.10;92.40;;;;;;5014282;28;20497;-74
2022/12/18 07:11:47;;;;;;;15.30;6.60;;;-3.10;92.90;;;;;;5014058;28;20038;-74
2022/12/18 07:14:12;;;;;;;17.52;7.32;;;-3.00;93.10;;;;;;5014473;28;20049;-75
2022/12/18 07:16:38;;;;;;;16.00;7.32;;;-3.10;92.90;;;;;;5014308;28;20474;-75
2022/12/18 07:19:04;;;;;;;14.90;6.93;;;-3.20;92.50;;;;;;5014624;28;20034;-75
2022/12/18 07:21:30;;;;;;;15.80;6.68;;;-3.40;92.10;;;;;;5013126;28;20037;-75
2022/12/18 07:23:56;;;;;;;13.73;6.20;;;-3.40;92.00;;;;;;5014052;28;20073;-74
2022/12/18 07:26:22;;;;;;;15.50;6.95;;;-3.50;92.10;;;;;;5013837;28;20030;-73
2022/12/18 07:28:49;;;;;;;14.73;7.03;;;-3.50;92.40;;;;;;5013176;28;20077;-72
2022/12/18 07:31:19;;;;;;;14.07;6.47;;;-3.60;92.10;;;;;;5013769;28;20038;-71
2022/12/18 07:33:45;;;;;;;13.43;6.68;;;-3.60;92.20;;;;;;5012444;28;20045;-73
2022/12/18 07:36:11;;;;;;;20.55;7.80;;;-3.50;92.60;;;;;;5012474;28;20053;-76
2022/12/18 07:38:37;;;;;;;19.80;7.53;;;-3.40;93.00;;;;;;5013531;28;20372;-77
2022/12/18 07:41:06;;;;;;;20.67;8.13;;;-3.50;92.50;;;;;;5013956;28;20136;-73
2022/12/18 07:43:32;;;;;;;22.38;10.20;;;-3.50;93.00;;;;;;5013745;28;20034;-75
2022/12/18 07:45:58;;;;;;;23.75;7.47;;;-3.40;93.10;;;;;;5012403;28;20045;-74
2022/12/18 07:48:24;;;;;;;17.48;7.55;;;-3.40;93.10;;;;;;5013341;28;20034;-75
2022/12/18 07:50:50;;;;;;;15.30;7.05;;;-3.40;93.10;;;;;;5012721;28;20018;-75
2022/12/18 07:53:15;;;;;;;19.55;7.10;;;-3.30;93.10;;;;;;5013052;28;20018;-76
2022/12/18 07:55:42;;;;;;;16.33;7.05;;;-3.30;92.50;;;;;;5013736;28;20018;-76
2022/12/18 07:58:08;;;;;;;17.02;6.53;;;-3.40;92.20;;;;;;5013415;28;20077;-76
2022/12/18 08:00:34;;;;;;;15.52;6.78;;;-3.40;92.20;;;;;;5013188;28;20022;-84
2022/12/18 08:03:00;;;;;;;14.70;6.70;;;-3.30;92.70;;;;;;5013120;28;20061;-74
2022/12/18 08:05:26;;;;;;;18.50;7.22;;;-3.40;92.20;;;;;;5013074;28;20058;-81
2022/12/18 08:07:53;;;;;;;21.75;7.13;;;-3.50;92.10;;;;;;5012602;28;20018;-81
2022/12/18 08:10:19;;;;;;;13.65;6.75;;;-3.60;91.80;;;;;;5013115;28;20113;-80
2022/12/18 08:12:45;;;;;;;19.65;6.45;;;-3.60;92.10;;;;;;5012987;28;20045;-81
2022/12/18 08:15:10;;;;;;;15.73;6.07;;;-3.60;92.40;;;;;;5015930;28;20682;-77
2022/12/18 08:17:36;;;;;;;12.75;6.13;;;-3.40;93.10;;;;;;5012418;28;20033;-76
2022/12/18 08:20:03;;;;;;;13.68;5.47;;;-3.30;93.40;;;;;;5012148;28;20124;-73
2022/12/18 08:22:28;;;;;;;12.40;6.93;;;-3.20;93.30;;;;;;5012973;28;20471;-79
2022/12/18 08:24:54;;;;;;;15.82;5.47;;;-3.30;92.80;;;;;;5012822;28;20045;-76
2022/12/18 08:27:20;;;;;;;11.13;5.95;;;-3.20;93.30;;;;;;5017116;28;20347;-74
2022/12/18 08:29:45;;;;;;;17.85;7.13;;;-3.10;93.50;;;;;;5012594;28;20029;-75
2022/12/18 08:32:11;;;;;;;19.67;6.85;;;-3.00;93.60;;;;;;5012654;28;20131;-75
2022/12/18 08:34:37;;;;;;;14.85;7.35;;;-3.10;92.80;;;;;;5012412;28;20590;-76
2022/12/18 08:37:02;;;;;;;13.40;6.28;;;-3.20;92.40;;;;;;5012226;28;20148;-74
2022/12/18 08:39:28;;;;;;;13.10;6.28;;;-3.20;92.50;;;;;;5012307;28;20026;-76
2022/12/18 08:44:38;;;;;;;17.85;6.68;;;-3.30;92.50;;;;;;5012504;28;20032;-74
2022/12/18 08:47:05;;;;;;;14.60;6.60;;;-3.30;92.40;;;;;;5012788;28;20093;-74
2022/12/18 08:49:31;;;;;;;18.02;6.72;;;-3.30;92.60;;;;;;5026445;28;20034;-79
2022/12/18 08:51:58;;;;;;;13.80;5.97;;;-3.20;92.80;;;;;;5012914;28;20432;-80
2022/12/18 08:54:24;;;;;;;14.48;6.72;;;-3.10;93.00;;;;;;5012390;28;20491;-80
2022/12/18 08:56:50;;;;;;;15.65;6.45;;;-3.00;93.00;;;;;;5012324;28;20357;-74
2022/12/18 08:59:19;;;;;;;13.50;6.25;;;-2.90;93.10;;;;;;5012126;28;20043;-76
2022/12/18 09:01:46;;;;;;;15.32;6.03;;;-2.80;93.30;;;;;;5010571;28;20326;-75
2022/12/18 09:04:12;;;;;;;13.10;6.03;;;-2.60;93.40;;;;;;5012062;28;20026;-79
2022/12/18 09:06:38;;;;;;;12.82;5.93;;;-2.50;93.60;;;;;;5012161;28;20147;-75
2022/12/18 09:09:04;;;;;;;15.77;6.05;;;-2.30;93.60;;;;;;5011665;28;20104;-76
2022/12/18 09:11:31;;;;;;;10.32;5.72;;;-2.20;93.70;;;;;;5011938;28;20041;-76
2022/12/18 09:13:59;;;;;;;14.33;6.23;;;-2.10;93.60;;;;;;5012241;28;20041;-75
2022/12/18 09:16:25;;;;;;;;;;;-2.00;93.60;;;;;;5012356;28;20041;-76
2022/12/18 09:18:53;;;;;;;13.05;5.82;;;-1.90;93.80;;;;;;5010779;28;19920;-77
2022/12/18 09:21:20;;;;;;;14.98;5.97;;;-1.70;94.00;;;;;;5011962;28;20041;-75
2022/12/18 09:23:54;;;;;;;15.73;6.50;;;-1.60;94.00;;;;;;5010666;28;20072;-76
2022/12/18 09:26:20;;;;;;;15.82;6.38;;;-1.40;94.00;;;;;;5011021;28;20032;-75
2022/12/18 09:28:46;;;;;;;16.30;5.88;;;-1.40;93.80;;;;;;5011874;28;20065;-76
2022/12/18 09:31:13;;;;;;;16.02;6.50;;;-1.30;93.80;;;;;;5011571;28;20779;-77
2022/12/18 09:33:39;;;;;;;18.85;6.90;;;-1.20;93.70;;;;;;5018686;28;20388;-75
2022/12/18 09:36:08;;;;;;;14.48;6.45;;;-1.10;93.70;;;;;;5010423;28;20128;-79
2022/12/18 09:38:34;;;;;;;14.77;6.75;;;-1.10;93.50;;;;;;5010319;28;20516;-76
2022/12/18 09:41:17;;;;;;;14.93;6.78;;;-1.00;93.60;;;;;;5011155;28;20144;-75
2022/12/18 09:43:50;;;;;;;11.45;5.50;;;-0.90;93.70;;;;;;5011571;28;20030;-75
2022/12/18 09:46:35;;;;;;;18.13;6.53;;;-0.80;93.70;;;;;;5010167;28;20033;-77
2022/12/18 09:49:06;;;;;;;14.95;6.03;;;-0.70;93.70;;;;;;5011343;28;20288;-75
2022/12/18 09:51:43;;;;;;;14.90;7.68;;;-0.60;93.50;;;;;;5011373;28;20038;-79
2022/12/18 09:54:17;;;;;;;20.05;8.23;;;-0.50;93.50;;;;;;5014284;28;20601;-77
2022/12/18 09:56:43;;;;;;;13.18;6.40;;;-0.40;93.60;;;;;;5011443;28;20133;-75
2022/12/18 09:59:26;;;;;;;14.73;6.10;;;-0.20;93.60;;;;;;5011680;28;20108;-78
2022/12/18 10:01:52;;;;;;;15.30;6.07;;;-0.10;93.50;;;;;;5010286;28;20500;-76
2022/12/18 10:04:18;;;;;;;19.60;6.20;;;0.10;93.50;;;;;;5011079;28;20193;-76
2022/12/18 10:06:59;;;;;;;13.10;5.80;;;0.20;93.50;;;;;;5011016;28;20144;-78
2022/12/18 10:09:33;;;;;;;9.80;5.07;;;0.30;93.20;;;;;;5009847;28;20053;-77
2022/12/18 10:12:15;;;;;;;11.68;5.75;;;0.40;93.20;;;;;;5010731;28;20117;-76
2022/12/18 10:14:51;;;;;;;13.63;6.35;;;0.60;93.10;;;;;;5010263;28;20034;-75
2022/12/18 10:17:54;;;;;;;13.07;6.03;;;0.70;93.10;;;;;;5009791;28;20494;-75
2022/12/18 10:20:41;;;;;;;19.48;6.07;;;0.80;92.90;;;;;;5009675;28;20386;-76
2022/12/18 10:23:45;;;;;;;19.85;6.97;;;1.00;92.90;;;;;;5011669;28;20184;-74
2022/12/18 10:26:14;;;;;;;12.32;6.15;;;1.00;92.60;;;;;;4998888;28;20030;-75
2022/12/18 10:28:41;;;;;;;16.92;5.95;;;1.10;92.60;;;;;;5011723;28;20409;-74
2022/12/18 10:31:14;;;;;;;14.68;5.40;;;1.20;92.60;;;;;;5021858;28;20476;-73
2022/12/18 10:33:41;;;;;;;14.70;5.72;;;1.30;92.50;;;;;;5022066;28;20033;-76
2022/12/18 10:36:07;;;;;;;15.70;5.82;;;1.50;92.60;;;;;;5029229;28;20084;-77
2022/12/18 10:38:33;;;;;;;22.65;9.40;;;1.40;92.50;;;;;;5029724;28;20040;-79
2022/12/18 10:41:04;;;;;;;16.63;6.78;;;1.50;92.70;;;;;;5031532;28;20444;-79
2022/12/18 10:43:38;;;;;;;14.70;6.13;;;1.60;92.60;;;;;;5029979;28;20392;-84
2022/12/18 10:46:07;;;;;;;12.10;5.75;;;1.60;93.10;;;;;;5030614;28;20080;-79
2022/12/18 10:48:47;;;;;;;15.27;6.30;;;1.70;92.70;;;;;;5030892;28;20037;-78
2022/12/18 10:51:24;;;;;;;10.75;5.65;;;1.80;92.80;;;;;;5030734;28;20032;-76
2022/12/18 10:54:06;;;;;;;13.68;6.47;;;1.90;93.00;;;;;;5030447;28;20037;-80
2022/12/18 10:56:34;;;;;;;14.30;5.97;;;2.00;93.00;;;;;;5029572;28;20363;-74
2022/12/18 10:59:06;;;;;;;12.55;5.57;;;2.00;93.10;;;;;;5029521;28;20026;-72
2022/12/18 11:01:55;;;;;;;15.65;5.63;;;1.90;92.70;;;;;;5030317;28;20041;-76
2022/12/18 11:04:29;;;;;;;12.98;6.13;;;2.00;92.80;;;;;;5030702;28;20060;-79
2022/12/18 11:07:07;;;;;;;13.73;6.47;;;2.00;92.70;;;;;;5029787;28;20033;-77
2022/12/18 11:09:35;;;;;;;10.43;5.45;;;2.00;92.80;;;;;;5030386;28;20041;-77
2022/12/18 11:12:06;;;;;;;;;;;2.20;92.70;;;;;;5030594;28;20037;-81
2022/12/18 11:14:45;;;;;;;11.82;5.43;;;2.20;92.30;;;;;;5029007;28;20262;-77
2022/12/18 11:17:30;;;;;;;11.00;5.30;;;2.30;92.50;;;;;;5030497;28;20026;-78
2022/12/18 11:19:58;;;;;;;10.95;5.15;;;2.50;92.30;;;;;;5030860;28;20474;-74
2022/12/18 11:22:28;;;;;;;15.52;5.35;;;2.50;92.00;;;;;;5030584;28;20053;-71
2022/12/18 11:25:16;;;;;;;13.38;5.18;;;2.50;91.90;;;;;;5031707;28;20060;-77
2022/12/18 11:27:47;;;;;;;;;;;2.80;92.70;;;;;;5033501;28;20329;-78
2022/12/18 11:30:26;;;;;;;10.50;5.07;;;3.00;92.30;;;;;;5033475;28;20033;-77
2022/12/18 11:33:11;;;;;;;8.73;4.80;;;2.90;91.60;;;;;;5033547;28;20029;-76
2022/12/18 11:35:52;;;;;;;10.95;5.80;;;3.20;91.80;;;;;;5033493;28;20061;-73
2022/12/18 11:38:26;;;;;;;10.85;4.88;;;3.50;91.80;;;;;;5033387;28;20129;-75
2022/12/18 11:41:01;;;;;;;11.07;5.40;;;4.30;91.30;;;;;;5032949;28;20522;-74
2022/12/18 11:43:47;;;;;;;8.98;4.43;;;5.00;90.80;;;;;;5032054;28;20539;-73
2022/12/18 11:46:18;;;;;;;15.43;7.05;;;5.60;90.10;;;;;;5032644;28;20033;-75
2022/12/18 11:48:58;;;;;;;13.43;6.00;;;5.80;87.20;;;;;;5033447;28;20463;-74
2022/12/18 11:51:34;;;;;;;11.60;6.00;;;6.00;86.90;;;;;;5032069;28;20037;-74
2022/12/18 11:54:01;;;;;;;8.15;3.63;;;6.00;86.70;;;;;;5033204;28;20033;-74
2022/12/18 11:56:43;;;;;;;8.77;4.38;;;5.80;85.50;;;;;;5032743;28;20420;-75
2022/12/18 11:59:22;;;;;;;6.82;3.60;;;5.70;86.10;;;;;;5032677;28;20037;-77
2022/12/18 12:01:56;;;;;;;7.30;3.67;;;5.70;86.50;;;;;;5033331;28;20513;-78
2022/12/18 12:04:54;;;;;;;8.27;4.20;;;5.70;86.00;;;;;;5032129;28;20435;-76
2022/12/18 12:07:35;;;;;;;9.07;4.18;;;5.60;86.00;;;;;;5032582;28;20079;-77
2022/12/18 12:10:22;;;;;;;10.27;4.75;;;5.50;85.50;;;;;;5031819;28;20033;-74
2022/12/18 12:13:16;;;;;;;9.60;4.15;;;5.40;85.90;;;;;;5032501;28;20050;-75
2022/12/18 12:15:57;;;;;;;12.93;5.07;;;5.30;86.20;;;;;;5031582;28;20034;-73
2022/12/18 12:18:58;;;;;;;11.73;6.05;;;5.10;85.80;;;;;;5032788;28;20029;-73
2022/12/18 12:21:36;;;;;;;11.07;6.15;;;4.90;86.00;;;;;;5010637;28;20025;-82
2022/12/18 12:24:26;;;;;;;14.52;5.32;;;4.80;85.90;;;;;;5026836;28;20025;-79
2022/12/18 12:26:59;;;;;;;14.15;6.20;;;4.70;86.10;;;;;;5032722;28;20021;-75
2022/12/18 12:29:38;;;;;;;14.45;6.47;;;4.60;86.00;;;;;;5032485;28;20021;-75
2022/12/18 12:32:36;;;;;;;14.90;6.00;;;4.60;86.50;;;;;;5032717;28;20032;-75
2022/12/18 12:35:39;;;;;;;11.20;6.07;;;4.40;85.80;;;;;;5032395;28;20064;-73
2022/12/18 12:38:14;;;;;;;14.48;5.60;;;4.50;85.80;;;;;;5032537;28;20041;-74
2022/12/18 12:40:46;;;;;;;10.60;4.78;;;4.40;85.50;;;;;;5032059;28;20038;-72
2022/12/18 12:43:37;;;;;;;10.88;5.32;;;4.30;85.20;;;;;;5032051;28;20040;-73
2022/12/18 12:46:13;;;;;;;15.60;5.82;;;4.10;85.20;;;;;;5031980;28;20406;-71
2022/12/18 12:48:55;;;;;;;11.90;5.30;;;4.10;86.00;;;;;;5031950;28;20402;-70
2022/12/18 12:51:22;;;;;;;10.35;4.90;;;4.00;86.00;;;;;;5030726;28;20371;-72
2022/12/18 12:53:49;;;;;;;12.93;5.57;;;3.90;86.30;;;;;;5031661;28;20364;-72
2022/12/18 12:56:17;;;;;;;14.10;5.70;;;4.00;86.60;;;;;;5032138;28;20397;-72
2022/12/18 12:58:49;;;;;;;16.00;6.18;;;3.80;86.40;;;;;;5031526;28;20529;-71
2022/12/18 13:01:37;;;;;;;11.15;5.72;;;3.70;86.60;;;;;;5031977;28;20061;-73
2022/12/18 13:04:09;;;;;;;16.33;6.90;;;3.70;86.90;;;;;;5031701;28;20033;-73